Time;durP1;ratioP1;P1;durP2;ratioP2;P2;SDS_P1;SDS_P2;PMS_P1;PMS_P2;Temp;Humidity;BMP_temperature;BMP_pressure;BME280_temperature;BME280_humidity;BME280_pressure;Samples;Min_cycle;Max_cycle;Signal;HPM_P1;HPM_P2
2022/10/08 00:01:30;;;;;;;0.40;0.20;;;;;;;13.62;60.85;96003.66;5132661;27;20933;-55
2022/10/08 00:04:00;;;;;;;0.40;0.27;;;;;;;13.86;59.74;95995.84;5132651;27;20435;-54
2022/10/08 00:06:30;;;;;;;0.40;0.20;;;;;;;13.90;59.26;95996.91;5133353;27;20429;-54
2022/10/08 00:09:01;;;;;;;0.40;0.20;;;;;;;13.44;59.69;95960.81;5133380;27;20434;-55
2022/10/08 00:11:31;;;;;;;0.63;0.60;;;;;;;12.68;63.11;95996.28;5133325;27;20473;-54
2022/10/08 00:14:00;;;;;;;0.50;0.30;;;;;;;12.42;64.58;96002.63;5133352;27;20505;-54
2022/10/08 00:16:32;;;;;;;0.40;0.30;;;;;;;12.70;64.03;96004.81;5133333;27;20453;-54
2022/10/08 00:19:04;;;;;;;0.40;0.20;;;;;;;12.27;63.94;95936.16;5133332;27;20795;-54
2022/10/08 00:21:35;;;;;;;0.50;0.27;;;;;;;12.85;63.53;95995.25;5133015;27;20936;-54
2022/10/08 00:24:06;;;;;;;0.40;0.20;;;;;;;12.49;63.48;95914.66;5132826;27;20487;-54
2022/10/08 00:26:37;;;;;;;0.70;0.40;;;;;;;13.24;62.19;95982.97;5132982;27;20432;-54
2022/10/08 00:29:13;;;;;;;0.40;0.30;;;;;;;13.31;61.95;95991.47;5133209;27;20441;-54
2022/10/08 00:31:44;;;;;;;0.67;0.67;;;;;;;12.97;63.75;95993.09;5133159;27;20473;-54
2022/10/08 00:34:16;;;;;;;0.47;0.40;;;;;;;12.55;64.48;95978.19;5133090;27;20517;-54
2022/10/08 00:36:44;;;;;;;0.60;0.40;;;;;;;12.82;63.84;95991.25;5132905;27;20438;-54
2022/10/08 00:39:15;;;;;;;2.77;0.40;;;;;;;11.81;63.59;95812.34;5131796;27;20438;-54
2022/10/08 00:41:45;;;;;;;0.60;0.60;;;;;;;12.49;65.33;95997.88;5132719;27;20516;-54
2022/10/08 00:44:52;;;;;;;1.63;0.40;;;;;;;12.66;64.68;95979.00;5132943;27;20421;-54
2022/10/08 00:47:30;;;;;;;0.40;0.20;;;;;;;12.77;63.92;95970.75;5132591;27;20510;-54
2022/10/08 00:50:08;;;;;;;0.50;0.30;;;;;;;12.50;63.74;95911.72;5132988;27;20426;-54
2022/10/08 00:52:42;;;;;;;0.40;0.40;;;;;;;12.98;63.32;95946.81;5133167;27;20430;-54
2022/10/08 00:55:14;;;;;;;0.40;0.30;;;;;;;12.82;62.72;95931.94;5137070;27;20429;-54
2022/10/08 00:57:44;;;;;;;0.70;0.30;;;;;;;13.08;62.65;95968.91;5136865;27;20445;-54
2022/10/08 01:00:15;;;;;;;0.40;0.20;;;;;;;13.15;62.75;95974.75;5137210;27;20812;-54
2022/10/08 01:02:44;;;;;;;0.40;0.30;;;;;;;12.73;62.58;95907.72;5137200;27;20458;-54
2022/10/08 01:05:18;;;;;;;0.40;0.40;;;;;;;13.05;62.45;95952.66;5137147;27;20486;-54
2022/10/08 01:07:52;;;;;;;0.40;0.20;;;;;;;13.06;62.68;95951.56;5136694;27;20801;-54
2022/10/08 01:10:28;;;;;;;0.50;0.30;;;;;;;12.85;62.39;95945.47;5136672;27;20432;-54
2022/10/08 01:13:10;;;;;;;0.57;0.27;;;;;;;12.67;64.36;95969.97;5137016;27;20425;-54
2022/10/08 01:15:49;;;;;;;0.60;0.60;;;;;;;12.96;63.07;95967.53;5136078;27;20429;-54
2022/10/08 01:18:24;;;;;;;0.40;0.20;;;;;;;12.99;62.90;95965.16;5136838;27;20413;-54
2022/10/08 01:21:03;;;;;;;0.40;0.30;;;;;;;12.79;63.57;95991.78;5136515;27;20939;-54
2022/10/08 01:24:01;;;;;;;0.40;0.20;;;;;;;12.80;63.53;95974.75;5136457;27;20466;-54
2022/10/08 01:26:47;;;;;;;0.40;0.20;;;;;;;12.61;64.87;95942.56;5136676;27;20456;-54
2022/10/08 01:29:21;;;;;;;0.40;0.20;;;;;;;12.74;64.09;95960.66;5136331;27;20433;-54
2022/10/08 01:31:54;;;;;;;0.40;0.30;;;;;;;12.66;64.26;95958.53;5135922;27;20491;-54
2022/10/08 01:34:27;;;;;;;0.40;0.30;;;;;;;12.83;63.82;95960.91;5136299;27;20437;-54
2022/10/08 01:36:57;;;;;;;0.40;0.20;;;;;;;12.88;63.78;95952.94;5136504;27;20425;-54
2022/10/08 01:39:30;;;;;;;0.40;0.20;;;;;;;12.58;63.67;95927.16;5136512;27;20425;-54
2022/10/08 01:42:02;;;;;;;0.40;0.20;;;;;;;12.70;63.29;95934.84;5136033;27;20945;-54
2022/10/08 01:44:37;;;;;;;0.40;0.20;;;;;;;12.77;63.31;95938.06;5136336;27;20486;-54
2022/10/08 01:47:10;;;;;;;0.70;0.70;;;;;;;12.80;63.42;95956.13;5135870;27;20440;-54
2022/10/08 01:49:44;;;;;;;0.40;0.20;;;;;;;12.63;63.10;95929.81;5135755;27;20425;-55
2022/10/08 01:52:19;;;;;;;0.40;0.20;;;;;;;12.63;63.90;95955.59;5135836;27;20805;-54
2022/10/08 01:54:51;;;;;;;0.40;0.30;;;;;;;11.96;64.34;95828.28;5135829;27;20433;-54
2022/10/08 01:57:20;;;;;;;0.40;0.20;;;;;;;12.30;63.45;95869.19;5135789;27;20430;-54
2022/10/08 01:59:55;;;;;;;0.40;0.30;;;;;;;12.26;62.60;95812.31;5136054;27;20422;-54
2022/10/08 02:02:25;;;;;;;0.40;0.23;;;;;;;13.21;61.90;95955.03;5135650;27;20432;-55
2022/10/08 02:04:55;;;;;;;0.40;0.20;;;;;;;13.17;61.62;95955.84;5134822;27;20420;-55
2022/10/08 02:07:27;;;;;;;0.40;0.20;;;;;;;12.25;61.88;95828.53;5135943;27;20429;-55
2022/10/08 02:10:04;;;;;;;0.40;0.20;;;;;;;13.25;61.49;95957.97;5135888;27;20425;-54
2022/10/08 02:12:33;;;;;;;0.57;0.50;;;;;;;13.17;61.48;95954.00;5135348;27;20469;-54
2022/10/08 02:15:04;;;;;;;0.40;0.30;;;;;;;13.49;61.19;95968.78;5135043;27;20905;-54
2022/10/08 02:17:40;;;;;;;0.40;0.20;;;;;;;13.41;60.67;95959.50;5135099;27;20432;-54
2022/10/08 02:20:18;;;;;;;0.40;0.20;;;;;;;12.95;62.03;95942.03;5135287;27;20437;-55
2022/10/08 02:22:57;;;;;;;0.40;0.23;;;;;;;12.68;63.49;95921.81;5135265;27;20422;-55
2022/10/08 02:25:31;;;;;;;0.73;0.73;;;;;;;13.17;62.43;95959.31;5135321;27;20429;-55
2022/10/08 02:28:08;;;;;;;0.50;0.30;;;;;;;13.01;62.86;95951.56;5135521;27;20436;-55
2022/10/08 02:30:44;;;;;;;0.40;0.20;;;;;;;11.25;64.09;95721.97;5135508;27;20490;-55
2022/10/08 02:33:15;;;;;;;0.40;0.20;;;;;;;12.77;63.89;95959.34;5135022;27;20465;-54
2022/10/08 02:35:47;;;;;;;0.40;0.30;;;;;;;12.63;64.07;95956.41;5135018;27;20437;-55
2022/10/08 02:38:21;;;;;;;0.40;0.20;;;;;;;12.54;64.42;95957.19;5134962;27;20432;-55
2022/10/08 02:40:52;;;;;;;0.67;0.60;;;;;;;12.08;64.29;95903.19;5135301;27;20817;-55
2022/10/08 02:43:25;;;;;;;0.50;0.40;;;;;;;12.37;64.42;95960.09;5135171;27;20444;-54
2022/10/08 02:46:00;;;;;;;0.40;0.20;;;;;;;11.32;63.27;95778.25;5135025;27;20430;-54
2022/10/08 02:48:31;;;;;;;0.40;0.20;;;;;;;12.60;63.18;95962.25;5134591;27;20432;-54
2022/10/08 02:51:04;;;;;;;0.40;0.20;;;;;;;12.42;63.82;95965.41;5135021;27;20434;-53
2022/10/08 02:53:33;;;;;;;0.40;0.30;;;;;;;11.37;68.34;95977.28;5134961;27;20475;-53
2022/10/08 02:56:11;;;;;;;3.60;0.53;;;;;;;10.64;72.22;95953.47;5134824;27;20447;-53
2022/10/08 02:58:40;;;;;;;0.40;0.20;;;;;;;11.28;70.96;95954.94;5134799;27;20432;-53
2022/10/08 03:01:16;;;;;;;0.40;0.30;;;;;;;10.36;72.61;95876.94;5134690;27;20434;-53
2022/10/08 03:03:53;;;;;;;0.40;0.30;;;;;;;11.00;72.34;95947.38;5134986;27;20434;-53
2022/10/08 03:06:22;;;;;;;0.40;0.30;;;;;;;11.36;70.54;95940.38;5135104;27;20440;-53
2022/10/08 03:08:51;;;;;;;0.40;0.30;;;;;;;11.66;69.80;95971.59;5134920;27;20429;-53
2022/10/08 03:11:20;;;;;;;0.47;0.30;;;;;;;11.70;68.66;95967.38;5134831;27;20430;-53
2022/10/08 03:13:50;;;;;;;0.40;0.30;;;;;;;11.63;69.01;95959.63;5134489;27;20477;-53
2022/10/08 03:16:23;;;;;;;0.50;0.30;;;;;;;11.60;68.92;95962.81;5134284;27;20450;-53
2022/10/08 03:18:52;;;;;;;0.40;0.20;;;;;;;11.72;68.35;95944.00;5134418;27;20990;-53
2022/10/08 03:21:21;;;;;;;0.40;0.30;;;;;;;11.76;67.47;95932.63;5134705;27;20965;-53
2022/10/08 03:23:49;;;;;;;0.40;0.20;;;;;;;11.27;68.84;95900.28;5134178;27;20473;-53
2022/10/08 03:26:17;;;;;;;0.40;0.20;;;;;;;11.64;69.36;95963.09;5134093;27;20911;-54
2022/10/08 03:28:46;;;;;;;0.40;0.20;;;;;;;10.10;70.61;95762.00;5134409;27;20932;-53
2022/10/08 03:31:14;;;;;;;1.23;0.63;;;;;;;11.00;71.18;95941.25;5134269;27;20455;-54
2022/10/08 03:33:44;;;;;;;0.40;0.30;;;;;;;11.09;72.18;95956.44;5134218;27;20475;-54
2022/10/08 03:36:15;;;;;;;3.10;0.90;;;;;;;11.17;71.35;95942.69;5134510;27;20452;-54
2022/10/08 03:38:43;;;;;;;0.50;0.37;;;;;;;11.41;70.79;95959.78;5134075;27;20426;-54
2022/10/08 03:41:12;;;;;;;0.40;0.20;;;;;;;10.36;69.94;95757.69;5134423;27;20897;-54
2022/10/08 03:43:41;;;;;;;6.43;0.50;;;;;;;10.70;69.49;95814.63;5134373;27;20425;-54
2022/10/08 03:46:12;;;;;;;0.40;0.27;;;;;;;11.40;69.35;95921.06;5133964;27;20430;-54
2022/10/08 03:48:41;;;;;;;0.40;0.20;;;;;;;11.31;70.26;95949.13;5133926;27;20421;-54
2022/10/08 03:51:12;;;;;;;0.40;0.30;;;;;;;11.07;71.34;95950.59;5134046;27;20800;-54
2022/10/08 03:53:42;;;;;;;0.40;0.30;;;;;;;10.15;72.90;95799.16;5133713;27;20468;-54
2022/10/08 03:56:13;;;;;;;0.40;0.30;;;;;;;11.16;73.69;95959.66;5134081;27;20441;-54
2022/10/08 03:58:42;;;;;;;0.50;0.33;;;;;;;10.00;73.78;95769.88;5134038;27;20916;-54
2022/10/08 04:01:12;;;;;;;0.40;0.30;;;;;;;11.26;73.74;95956.25;5133730;27;20440;-54
2022/10/08 04:03:41;;;;;;;0.77;0.77;;;;;;;10.55;76.53;95950.47;5133506;27;20432;-54
2022/10/08 04:06:11;;;;;;;0.50;0.47;;;;;;;10.12;78.25;95927.59;5133709;27;20416;-54
2022/10/08 04:08:40;;;;;;;0.40;0.30;;;;;;;10.81;75.31;95959.44;5133802;27;20889;-54
2022/10/08 04:11:11;;;;;;;0.60;0.50;;;;;;;10.69;75.19;95934.97;5133594;27;20428;-54
2022/10/08 04:13:39;;;;;;;0.40;0.33;;;;;;;10.94;74.66;95937.78;5133780;27;20469;-54
2022/10/08 04:16:10;;;;;;;0.70;0.33;;;;;;;11.11;73.12;95969.44;5133359;27;20444;-54
2022/10/08 04:18:39;;;;;;;0.40;0.30;;;;;;;10.80;74.38;95937.41;5133386;27;20932;-54
2022/10/08 04:21:11;;;;;;;0.87;0.50;;;;;;;10.41;78.76;95972.34;5133556;27;20433;-54
2022/10/08 04:23:40;;;;;;;0.40;0.30;;;;;;;10.83;75.93;95968.72;5133286;27;20967;-54
2022/10/08 04:26:10;;;;;;;0.50;0.50;;;;;;;10.96;75.73;95969.34;5133194;27;20806;-54
2022/10/08 04:28:42;;;;;;;0.40;0.30;;;;;;;11.21;74.13;95959.69;5132605;27;20932;-54
2022/10/08 04:31:15;;;;;;;0.80;0.80;;;;;;;10.80;75.70;95965.81;5133063;27;20430;-54
2022/10/08 04:33:44;;;;;;;0.50;0.40;;;;;;;10.61;78.49;95969.88;5132640;27;21004;-54
2022/10/08 04:36:19;;;;;;;0.83;0.40;;;;;;;10.53;78.91;95973.78;5132846;27;20442;-54
2022/10/08 04:38:48;;;;;;;0.47;0.40;;;;;;;10.49;80.26;95971.91;5132976;27;20421;-55
2022/10/08 04:41:18;;;;;;;0.40;0.33;;;;;;;10.48;78.66;95965.00;5133213;27;20432;-54
2022/10/08 04:43:47;;;;;;;0.83;0.63;;;;;;;10.45;81.36;95960.22;5132739;27;20418;-54
2022/10/08 04:46:18;;;;;;;0.40;0.30;;;;;;;10.55;79.62;95955.00;5132752;27;20430;-55
2022/10/08 04:48:47;;;;;;;0.50;0.30;;;;;;;10.71;78.70;95969.97;5133033;27;20429;-55
2022/10/08 04:51:18;;;;;;;0.40;0.20;;;;;;;10.39;78.66;95940.81;5132500;27;20426;-55
2022/10/08 04:53:47;;;;;;;0.40;0.20;;;;;;;10.57;78.19;95966.97;5132606;27;20472;-55
2022/10/08 04:56:18;;;;;;;0.50;0.50;;;;;;;10.57;78.62;95961.66;5133031;27;20427;-55
2022/10/08 04:58:47;;;;;;;0.40;0.30;;;;;;;11.01;76.28;95964.88;5137276;27;20432;-54
2022/10/08 05:01:18;;;;;;;0.50;0.43;;;;;;;11.13;74.66;95938.16;5135135;27;20424;-54
2022/10/08 05:03:49;;;;;;;0.40;0.30;;;;;;;11.63;72.72;95961.47;5132651;27;20446;-54
2022/10/08 05:06:21;;;;;;;0.40;0.20;;;;;;;11.78;70.61;95957.06;5132915;27;20442;-55
2022/10/08 05:08:50;;;;;;;0.40;0.30;;;;;;;11.51;71.65;95960.91;5132668;27;20425;-55
2022/10/08 05:11:19;;;;;;;0.40;0.30;;;;;;;11.59;71.49;95944.47;5133106;27;20419;-54
2022/10/08 05:13:50;;;;;;;0.50;0.50;;;;;;;10.81;74.10;95954.13;5132527;27;20472;-54
2022/10/08 05:16:19;;;;;;;0.60;0.60;;;;;;;10.22;75.60;95883.72;5132515;27;20430;-54
2022/10/08 05:18:49;;;;;;;1.13;0.63;;;;;;;10.23;79.13;95949.69;5132166;27;20419;-54
2022/10/08 05:21:21;;;;;;;0.40;0.20;;;;;;;10.53;80.49;95981.75;5132937;27;20838;-54
2022/10/08 05:23:54;;;;;;;0.60;0.50;;;;;;;10.61;78.32;95944.19;5132585;27;20476;-54
2022/10/08 05:26:25;;;;;;;0.40;0.20;;;;;;;11.12;75.75;95965.75;5132673;27;20808;-54
2022/10/08 05:29:13;;;;;;;0.40;0.30;;;;;;;11.16;73.86;95980.06;5132366;27;20449;-54
2022/10/08 05:31:41;;;;;;;0.47;0.47;;;;;;;10.78;75.36;95966.03;5132417;27;20425;-54
2022/10/08 05:34:10;;;;;;;0.60;0.60;;;;;;;10.28;75.34;95901.22;5131570;27;20477;-54
2022/10/08 05:36:41;;;;;;;0.40;0.30;;;;;;;11.20;73.60;95978.53;5132336;27;20418;-54
2022/10/08 05:39:10;;;;;;;0.37;0.30;;;;;;;11.23;72.56;95973.47;5133377;27;20817;-54
2022/10/08 05:41:38;;;;;;;0.40;0.37;;;;;;;11.37;71.75;95965.88;5136502;27;20434;-54
2022/10/08 05:44:08;;;;;;;0.43;0.30;;;;;;;11.53;71.73;95972.88;5136561;27;20433;-54
2022/10/08 05:46:37;;;;;;;0.40;0.30;;;;;;;10.64;70.30;95789.94;5136367;27;20439;-54
2022/10/08 05:49:07;;;;;;;0.53;0.53;;;;;;;11.58;71.46;95930.41;5136678;27;20457;-54
2022/10/08 05:51:37;;;;;;;0.43;0.43;;;;;;;11.91;71.38;95969.06;5136394;27;20428;-54
2022/10/08 05:54:07;;;;;;;0.53;0.40;;;;;;;12.58;70.21;95961.72;5136387;27;20480;-54
2022/10/08 05:56:35;;;;;;;0.53;0.53;;;;;;;13.56;67.29;95962.13;5136202;27;20955;-54
2022/10/08 05:59:03;;;;;;;0.90;0.90;;;;;;;13.96;65.78;95963.84;5136259;27;20456;-53
2022/10/08 06:01:33;;;;;;;0.40;0.40;;;;;;;14.43;63.74;95961.44;5136373;27;20534;-55
2022/10/08 06:04:05;;;;;;;0.40;0.30;;;;;;;14.61;61.26;95879.94;5135964;27;20430;-54
2022/10/08 06:06:36;;;;;;;6.33;0.80;;;;;;;15.28;60.61;95921.72;5135684;27;20429;-52
2022/10/08 06:09:07;;;;;;;0.60;0.60;;;;;;;15.80;59.17;95947.59;5136128;27;20437;-55
2022/10/08 06:11:37;;;;;;;0.60;0.47;;;;;;;16.00;59.04;95954.56;5135733;27;20436;-57
2022/10/08 06:14:07;;;;;;;5.00;0.73;;;;;;;15.92;58.67;95950.66;5135602;27;20465;-58
2022/10/08 06:16:35;;;;;;;0.50;0.30;;;;;;;16.77;56.58;95945.97;5136159;27;20422;-58
2022/10/08 06:19:04;;;;;;;0.50;0.37;;;;;;;16.36;56.10;95878.09;5136006;27;20429;-58
2022/10/08 06:21:34;;;;;;;0.50;0.40;;;;;;;16.82;56.24;95896.91;5135825;27;20893;-57
2022/10/08 06:24:04;;;;;;;0.50;0.40;;;;;;;16.62;55.73;95935.50;5135497;27;20477;-58
2022/10/08 06:26:36;;;;;;;1.17;0.60;;;;;;;16.77;55.62;95945.19;5135354;27;20918;-59
2022/10/08 06:29:05;;;;;;;0.40;0.30;;;;;;;17.12;55.60;95947.25;5135176;27;20430;-59
2022/10/08 06:31:34;;;;;;;2.00;1.60;;;;;;;16.57;55.75;95940.16;5134818;27;20438;-59
2022/10/08 06:34:04;;;;;;;0.50;0.50;;;;;;;16.55;55.71;95907.50;5134812;27;20462;-58
2022/10/08 06:36:33;;;;;;;0.70;0.60;;;;;;;16.93;55.49;95941.16;5135545;27;20446;-61
2022/10/08 06:39:04;;;;;;;0.60;0.60;;;;;;;17.26;54.19;95947.25;5135537;27;20480;-59
2022/10/08 06:41:34;;;;;;;0.60;0.53;;;;;;;17.56;53.87;95942.16;5135435;27;20427;-58
2022/10/08 06:44:04;;;;;;;0.60;0.53;;;;;;;17.84;52.94;95940.25;5135075;27;20510;-58
2022/10/08 06:46:32;;;;;;;0.60;0.43;;;;;;;18.29;51.81;95947.34;5135279;27;20430;-57
2022/10/08 06:49:01;;;;;;;0.60;0.30;;;;;;;18.33;50.52;95873.19;5134656;27;20866;-57
2022/10/08 06:51:30;;;;;;;0.40;0.30;;;;;;;19.18;49.59;95944.69;5134710;27;20803;-57
2022/10/08 06:53:59;;;;;;;0.50;0.47;;;;;;;18.87;50.43;95938.53;5135118;27;20489;-59
2022/10/08 06:56:36;;;;;;;1.10;0.40;;;;;;;19.37;50.02;95933.78;5134759;27;20430;-58
2022/10/08 06:59:05;;;;;;;0.60;0.30;;;;;;;19.61;48.79;95931.47;5134808;27;20957;-58
2022/10/08 07:01:34;;;;;;;0.50;0.40;;;;;;;19.25;49.48;95941.59;5135121;27;20444;-57
2022/10/08 07:04:05;;;;;;;1.73;0.60;;;;;;;19.32;48.76;95933.88;5134379;27;20436;-58
2022/10/08 07:06:34;;;;;;;0.40;0.40;;;;;;;19.07;48.45;95935.34;5134588;27;20487;-57
2022/10/08 07:09:03;;;;;;;2.00;1.90;;;;;;;19.87;47.29;95928.88;5134234;27;20448;-56
2022/10/08 07:11:32;;;;;;;0.50;0.40;;;;;;;20.50;46.45;95928.34;5134484;27;20808;-56
2022/10/08 07:14:02;;;;;;;0.50;0.40;;;;;;;21.25;45.32;95920.50;5134245;27;20986;-56
2022/10/08 07:16:30;;;;;;;0.93;0.50;;;;;;;21.56;44.11;95914.06;5134524;27;20433;-56
2022/10/08 07:18:59;;;;;;;0.40;0.30;;;;;;;21.47;44.52;95919.50;5134708;27;20879;-57
2022/10/08 07:21:31;;;;;;;1.03;0.43;;;;;;;21.86;44.22;95921.06;5134585;27;20448;-56
2022/10/08 07:24:00;;;;;;;0.40;0.30;;;;;;;21.94;43.33;95921.03;5134184;27;20995;-56
2022/10/08 07:26:33;;;;;;;0.70;0.60;;;;;;;22.22;42.91;95915.16;5134233;27;20427;-56
2022/10/08 07:29:05;;;;;;;0.50;0.50;;;;;;;22.99;40.96;95909.13;5133938;27;20490;-55
2022/10/08 07:31:35;;;;;;;0.87;0.70;;;;;;;23.28;40.44;95831.31;5134092;27;20433;-54
2022/10/08 07:34:08;;;;;;;0.43;0.43;;;;;;;24.43;38.44;95894.13;5134301;27;20932;-54
2022/10/08 07:36:37;;;;;;;0.40;0.30;;;;;;;24.80;38.34;95890.16;5133913;27;20466;-53
2022/10/08 07:39:07;;;;;;;0.40;0.30;;;;;;;24.16;40.24;95887.50;5133720;27;20431;-54
2022/10/08 07:41:35;;;;;;;0.70;0.67;;;;;;;24.18;40.30;95887.19;5133868;27;20906;-53
2022/10/08 07:44:06;;;;;;;1.37;0.50;;;;;;;24.06;44.01;95877.09;5133663;27;20434;-53
2022/10/08 07:46:37;;;;;;;2.40;0.60;;;;;;;24.23;42.97;95819.22;5133737;27;20828;-54
2022/10/08 07:49:08;;;;;;;0.50;0.50;;;;;;;25.08;40.61;95838.59;5133707;27;20428;-52
2022/10/08 07:51:37;;;;;;;2.13;0.80;;;;;;;25.27;39.66;95866.63;5133644;27;20423;-52
2022/10/08 07:54:07;;;;;;;0.70;0.40;;;;;;;24.56;39.42;95853.09;5133812;27;20442;-53
2022/10/08 07:56:36;;;;;;;0.50;0.40;;;;;;;25.44;37.92;95851.13;5133548;27;20920;-53
2022/10/08 07:59:06;;;;;;;0.60;0.40;;;;;;;25.73;37.57;95829.75;5133593;27;20423;-53
2022/10/08 08:01:35;;;;;;;1.10;0.77;;;;;;;24.92;36.79;95776.19;5133739;27;20493;-53
2022/10/08 08:04:06;;;;;;;0.70;0.53;;;;;;;25.70;36.43;95851.41;5132641;27;20434;-53
2022/10/08 08:06:39;;;;;;;0.67;0.67;;;;;;;26.12;36.44;95848.91;5133799;27;20823;-53
2022/10/08 08:09:08;;;;;;;1.13;1.03;;;;;;;25.25;39.08;95847.19;5133625;27;20430;-53
2022/10/08 08:11:37;;;;;;;0.93;0.53;;;;;;;25.11;37.52;95840.63;5132985;27;20427;-53
2022/10/08 08:14:07;;;;;;;0.80;0.30;;;;;;;26.46;36.38;95839.94;5133195;27;20435;-53
2022/10/08 08:16:35;;;;;;;0.60;0.53;;;;;;;26.06;36.67;95832.06;5133334;27;20415;-53
2022/10/08 08:19:04;;;;;;;0.70;0.70;;;;;;;25.77;38.44;95835.28;5133182;27;20437;-59
2022/10/08 08:21:34;;;;;;;0.67;0.67;;;;;;;26.03;36.29;95761.34;5133300;27;20435;-54
2022/10/08 08:24:06;;;;;;;0.50;0.40;;;;;;;26.30;37.14;95828.31;5131980;27;20469;-54
2022/10/08 08:26:36;;;;;;;0.50;0.40;;;;;;;26.84;35.22;95828.25;5132963;27;20438;-54
2022/10/08 08:29:08;;;;;;;0.40;0.30;;;;;;;27.33;35.19;95780.13;5132759;27;20969;-54
2022/10/08 08:31:38;;;;;;;0.40;0.30;;;;;;;28.20;37.24;95823.50;5132786;27;20434;-53
2022/10/08 08:34:08;;;;;;;0.70;0.50;;;;;;;27.62;33.65;95819.53;5132617;27;20431;-54
2022/10/08 08:36:37;;;;;;;0.37;0.30;;;;;;;27.14;34.78;95815.59;5132258;27;20486;-54
2022/10/08 08:39:08;;;;;;;0.40;0.30;;;;;;;27.68;33.50;95796.25;5132772;27;20426;-53
2022/10/08 08:41:52;;;;;;;0.50;0.50;;;;;;;29.56;31.36;95808.22;5132715;27;20435;-54
2022/10/08 08:44:24;;;;;;;0.47;0.40;;;;;;;27.67;34.79;95800.94;5132573;27;20425;-53
2022/10/08 08:46:56;;;;;;;0.47;0.33;;;;;;;25.91;34.70;95813.88;5132878;27;20427;-54
2022/10/08 08:49:30;;;;;;;0.83;0.80;;;;;;;25.19;35.00;95807.91;5132553;27;20435;-55
2022/10/08 08:52:01;;;;;;;0.50;0.40;;;;;;;27.01;36.50;95811.47;5133040;27;20433;-55
2022/10/08 08:54:30;;;;;;;2.40;0.90;;;;;;;27.66;35.50;95796.63;5132562;27;21075;-53
2022/10/08 08:57:11;;;;;;;0.80;0.37;;;;;;;27.61;33.45;95799.66;5131837;27;20843;-54
2022/10/08 08:59:45;;;;;;;0.50;0.40;;;;;;;27.75;35.62;95795.59;5132964;27;20510;-53
2022/10/08 09:02:22;;;;;;;0.57;0.57;;;;;;;27.45;32.53;95793.56;5132720;27;20935;-52
2022/10/08 09:04:55;;;;;;;0.40;0.30;;;;;;;27.73;32.49;95771.41;5132892;27;20422;-52
2022/10/08 09:07:27;;;;;;;0.30;0.27;;;;;;;28.02;32.77;95778.09;5132487;27;20431;-52
2022/10/08 09:09:59;;;;;;;0.50;0.40;;;;;;;28.34;32.91;95771.09;5132174;27;20776;-52
2022/10/08 09:12:36;;;;;;;0.40;0.40;;;;;;;28.63;32.56;95774.97;5132178;27;20425;-53
2022/10/08 09:15:17;;;;;;;0.40;0.40;;;;;;;29.85;30.43;95774.50;5135459;27;20469;-53
2022/10/08 09:17:50;;;;;;;0.40;0.30;;;;;;;30.34;31.74;95756.75;5136078;27;20918;-52
2022/10/08 09:20:22;;;;;;;1.13;0.50;;;;;;;29.82;30.97;95749.88;5135888;27;20433;-53
2022/10/08 09:22:52;;;;;;;0.83;0.40;;;;;;;28.92;31.48;95763.94;5136466;27;20938;-53
2022/10/08 09:25:23;;;;;;;0.40;0.30;;;;;;;30.04;30.79;95754.28;5135816;27;20484;-53
2022/10/08 09:27:54;;;;;;;0.50;0.40;;;;;;;30.42;30.02;95755.63;5136469;27;20855;-54
2022/10/08 09:30:36;;;;;;;0.50;0.47;;;;;;;30.89;30.66;95752.63;5135866;27;20509;-55
2022/10/08 09:33:21;;;;;;;0.30;0.30;;;;;;;31.51;28.75;95750.38;5135524;27;20475;-55
2022/10/08 09:35:52;;;;;;;0.40;0.40;;;;;;;32.69;26.76;95735.13;5134477;27;20481;-54
2022/10/08 09:38:25;;;;;;;0.40;0.33;;;;;;;31.87;27.82;95749.13;5134120;27;20431;-54
2022/10/08 09:41:02;;;;;;;0.80;0.30;;;;;;;30.00;29.82;95737.88;5135441;27;20430;-54
2022/10/08 09:43:32;;;;;;;0.50;0.30;;;;;;;30.81;28.02;95742.84;5135481;27;20827;-55
2022/10/08 09:46:10;;;;;;;0.40;0.30;;;;;;;30.98;28.06;95725.69;5134239;27;20422;-54
2022/10/08 09:48:40;;;;;;;0.40;0.30;;;;;;;30.94;28.29;95715.91;5134113;27;20488;-55
2022/10/08 09:51:15;;;;;;;0.40;0.30;;;;;;;30.19;29.48;95712.16;5134761;27;20433;-54
2022/10/08 09:53:47;;;;;;;0.80;0.60;;;;;;;31.10;29.26;95711.59;5134940;27;20780;-54
2022/10/08 09:56:26;;;;;;;0.40;0.30;;;;;;;30.46;27.57;95707.22;5135146;27;20462;-54
2022/10/08 09:58:58;;;;;;;0.30;0.30;;;;;;;31.52;26.73;95699.09;5134878;27;20829;-57
2022/10/08 10:01:30;;;;;;;1.17;0.30;;;;;;;32.05;27.08;95699.75;5134990;27;20433;-54
2022/10/08 10:04:00;;;;;;;0.30;0.30;;;;;;;31.85;27.34;95690.41;5135457;27;20806;-55
2022/10/08 10:06:32;;;;;;;0.50;0.40;;;;;;;31.46;27.18;95692.44;5136094;27;20419;-57
2022/10/08 10:09:06;;;;;;;0.40;0.30;;;;;;;30.76;27.69;95680.28;5135689;27;20422;-55
2022/10/08 10:11:40;;;;;;;0.37;0.30;;;;;;;31.13;28.84;95683.44;5135614;27;20434;-54
2022/10/08 10:14:23;;;;;;;1.00;1.00;;;;;;;31.76;26.99;95671.59;5134833;27;20425;-56
2022/10/08 10:17:00;;;;;;;0.43;0.30;;;;;;;32.49;27.27;95672.47;5135463;27;20481;-54
2022/10/08 10:19:32;;;;;;;0.40;0.30;;;;;;;30.77;27.88;95658.00;5135165;27;20441;-55
2022/10/08 10:22:04;;;;;;;0.40;0.30;;;;;;;29.99;27.81;95639.84;5135899;27;20430;-54
2022/10/08 10:24:50;;;;;;;0.47;0.40;;;;;;;30.80;28.21;95651.75;5135465;27;20462;-54
2022/10/08 10:27:25;;;;;;;0.40;0.30;;;;;;;31.17;28.12;95590.34;5134931;27;20446;-53
2022/10/08 10:30:00;;;;;;;0.30;0.30;;;;;;;31.40;27.94;95642.69;5135791;27;20433;-54
2022/10/08 10:32:36;;;;;;;0.40;0.30;;;;;;;32.51;26.63;95639.94;5135811;27;20433;-54
2022/10/08 10:35:14;;;;;;;1.13;1.03;;;;;;;33.38;25.62;95631.38;5135799;27;20497;-53
2022/10/08 10:37:48;;;;;;;0.40;0.30;;;;;;;32.73;25.56;95623.31;5135401;27;20474;-53
2022/10/08 10:40:26;;;;;;;0.40;0.30;;;;;;;32.86;25.65;95621.66;5135647;27;20427;-55
2022/10/08 10:43:06;;;;;;;0.87;0.57;;;;;;;32.95;25.83;95616.47;5135393;27;20426;-51
2022/10/08 10:45:35;;;;;;;0.40;0.40;;;;;;;33.23;24.80;95616.25;5135474;27;20487;-53
2022/10/08 10:48:07;;;;;;;0.80;0.70;;;;;;;32.34;25.54;95613.38;5134986;27;20431;-53
2022/10/08 10:50:40;;;;;;;0.40;0.30;;;;;;;32.67;25.71;95605.72;5135579;27;20929;-53
2022/10/08 10:53:19;;;;;;;0.30;0.30;;;;;;;31.86;26.35;95606.94;5135001;27;20433;-53
2022/10/08 10:55:57;;;;;;;1.43;0.87;;;;;;;32.57;25.74;95607.38;5134895;27;20427;-57
2022/10/08 10:58:41;;;;;;;0.40;0.30;;;;;;;31.80;25.56;95430.38;5134871;27;20429;-53
2022/10/08 11:01:21;;;;;;;0.40;0.30;;;;;;;33.79;24.28;95601.13;5135167;27;20193;-53
2022/10/08 11:04:02;;;;;;;0.30;0.30;;;;;;;34.82;25.33;95595.72;5134710;27;20422;-53
2022/10/08 11:06:52;;;;;;;0.70;0.67;;;;;;;35.41;23.95;95542.72;5134535;27;20431;-57
2022/10/08 11:09:32;;;;;;;0.50;0.43;;;;;;;34.46;24.35;95572.69;5134717;27;20426;-55
2022/10/08 11:12:10;;;;;;;0.77;0.30;;;;;;;35.20;23.94;95563.22;5134682;27;20933;-55
2022/10/08 11:14:49;;;;;;;0.33;0.27;;;;;;;34.86;24.89;95568.13;5134759;27;20185;-55
2022/10/08 11:17:33;;;;;;;0.30;0.30;;;;;;;32.94;26.16;95543.53;5134240;27;20703;-55
2022/10/08 11:20:36;;;;;;;0.40;0.30;;;;;;;33.55;26.21;95558.97;5134371;27;20193;-55
2022/10/08 11:23:14;;;;;;;0.77;0.50;;;;;;;33.58;26.78;95557.38;5134553;27;20422;-55
2022/10/08 11:25:49;;;;;;;0.50;0.40;;;;;;;31.65;27.47;95555.75;5134425;27;20188;-53
2022/10/08 11:28:48;;;;;;;0.60;0.60;;;;;;;33.17;27.73;95543.69;5133784;27;20510;-54
2022/10/08 11:31:28;;;;;;;0.40;0.30;;;;;;;33.39;25.61;95520.28;5134123;27;20418;-55
2022/10/08 11:33:57;;;;;;;0.30;0.30;;;;;;;33.60;26.75;95527.53;5133991;27;20910;-55
2022/10/08 11:36:36;;;;;;;0.40;0.30;;;;;;;34.27;25.61;95524.63;5134219;27;21007;-59
2022/10/08 11:39:16;;;;;;;0.40;0.30;;;;;;;34.04;25.63;95530.06;5134088;27;20426;-56
2022/10/08 11:41:52;;;;;;;0.70;0.33;;;;;;;33.44;25.83;95521.81;5133929;27;20437;-57
2022/10/08 11:44:21;;;;;;;0.57;0.57;;;;;;;33.18;26.20;95517.78;5134273;27;20418;-57
2022/10/08 11:46:49;;;;;;;0.30;0.30;;;;;;;33.55;26.63;95509.50;5134143;27;20836;-57
2022/10/08 11:49:53;;;;;;;0.30;0.27;;;;;;;33.89;26.20;95506.69;5132608;27;20918;-57
2022/10/08 11:52:30;;;;;;;0.30;0.20;;;;;;;33.93;25.13;95499.16;5090500;28;20190;-57
2022/10/08 11:55:01;;;;;;;0.50;0.50;;;;;;;32.87;26.30;95437.28;5128491;27;20903;-57
2022/10/08 11:57:34;;;;;;;0.30;0.20;;;;;;;32.03;26.59;95496.41;5132692;27;20478;-58
2022/10/08 12:00:38;;;;;;;0.50;0.40;;;;;;;31.52;27.50;95490.84;5133041;27;20193;-57